sensor_id;sensor_type;location;lat;lon;timestamp;P1;durP1;ratioP1;P2;durP2;ratioP2
42132;SDS011;70517;48.192;16.278;2023-07-24T00:00:08;3.28;;;2.35;;
42132;SDS011;70517;48.192;16.278;2023-07-24T00:03:09;2.78;;;2.50;;
42132;SDS011;70517;48.192;16.278;2023-07-24T00:06:09;3.55;;;2.50;;
42132;SDS011;70517;48.192;16.278;2023-07-24T00:09:09;2.67;;;2.47;;
42132;SDS011;70517;48.192;16.278;2023-07-24T00:12:10;4.17;;;2.40;;
42132;SDS011;70517;48.192;16.278;2023-07-24T00:15:10;4.00;;;2.70;;
42132;SDS011;70517;48.192;16.278;2023-07-24T00:18:10;3.33;;;2.58;;
42132;SDS011;70517;48.192;16.278;2023-07-24T00:21:10;3.10;;;2.30;;
42132;SDS011;70517;48.192;16.278;2023-07-24T00:24:13;3.58;;;2.55;;
42132;SDS011;70517;48.192;16.278;2023-07-24T00:27:13;3.35;;;2.55;;
42132;SDS011;70517;48.192;16.278;2023-07-24T00:30:14;2.95;;;2.42;;
42132;SDS011;70517;48.192;16.278;2023-07-24T00:33:14;3.23;;;2.67;;
42132;SDS011;70517;48.192;16.278;2023-07-24T00:36:14;3.03;;;2.28;;
42132;SDS011;70517;48.192;16.278;2023-07-24T00:39:14;3.70;;;2.67;;
42132;SDS011;70517;48.192;16.278;2023-07-24T00:42:15;3.63;;;2.65;;
42132;SDS011;70517;48.192;16.278;2023-07-24T00:45:15;5.67;;;2.77;;
42132;SDS011;70517;48.192;16.278;2023-07-24T00:48:15;3.47;;;2.30;;
42132;SDS011;70517;48.192;16.278;2023-07-24T00:51:16;3.45;;;2.55;;
42132;SDS011;70517;48.192;16.278;2023-07-24T00:54:16;3.20;;;2.33;;
42132;SDS011;70517;48.192;16.278;2023-07-24T00:57:17;3.47;;;2.78;;
42132;SDS011;70517;48.192;16.278;2023-07-24T01:00:17;4.20;;;2.60;;
42132;SDS011;70517;48.192;16.278;2023-07-24T01:03:17;2.42;;;2.10;;
42132;SDS011;70517;48.192;16.278;2023-07-24T01:06:18;2.53;;;2.03;;
42132;SDS011;70517;48.192;16.278;2023-07-24T01:09:18;2.97;;;2.42;;
42132;SDS011;70517;48.192;16.278;2023-07-24T01:12:35;2.17;;;1.98;;
42132;SDS011;70517;48.192;16.278;2023-07-24T01:15:44;3.65;;;2.40;;
42132;SDS011;70517;48.192;16.278;2023-07-24T01:18:45;2.38;;;2.05;;
42132;SDS011;70517;48.192;16.278;2023-07-24T01:27:49;3.97;;;2.15;;
42132;SDS011;70517;48.192;16.278;2023-07-24T01:33:49;1.73;;;1.48;;
42132;SDS011;70517;48.192;16.278;2023-07-24T01:36:50;2.83;;;2.03;;
42132;SDS011;70517;48.192;16.278;2023-07-24T01:39:50;3.10;;;2.40;;
42132;SDS011;70517;48.192;16.278;2023-07-24T01:42:51;2.80;;;2.47;;
42132;SDS011;70517;48.192;16.278;2023-07-24T01:45:52;2.80;;;2.45;;
42132;SDS011;70517;48.192;16.278;2023-07-24T01:48:52;2.80;;;2.23;;
42132;SDS011;70517;48.192;16.278;2023-07-24T01:54:52;2.97;;;2.15;;
42132;SDS011;70517;48.192;16.278;2023-07-24T02:00:54;2.45;;;1.70;;
42132;SDS011;70517;48.192;16.278;2023-07-24T02:03:55;2.50;;;2.08;;
42132;SDS011;70517;48.192;16.278;2023-07-24T02:09:55;3.25;;;2.45;;
42132;SDS011;70517;48.192;16.278;2023-07-24T02:15:55;3.20;;;2.85;;
42132;SDS011;70517;48.192;16.278;2023-07-24T02:21:56;4.15;;;1.92;;
42132;SDS011;70517;48.192;16.278;2023-07-24T02:27:56;1.92;;;1.58;;
42132;SDS011;70517;48.192;16.278;2023-07-24T02:33:57;1.90;;;1.67;;
42132;SDS011;70517;48.192;16.278;2023-07-24T02:39:57;2.35;;;1.85;;
42132;SDS011;70517;48.192;16.278;2023-07-24T02:46:01;3.25;;;2.53;;
42132;SDS011;70517;48.192;16.278;2023-07-24T02:49:02;3.33;;;2.45;;
42132;SDS011;70517;48.192;16.278;2023-07-24T02:55:02;3.05;;;2.53;;
42132;SDS011;70517;48.192;16.278;2023-07-24T03:01:03;3.13;;;2.42;;
42132;SDS011;70517;48.192;16.278;2023-07-24T03:04:04;2.97;;;2.33;;
42132;SDS011;70517;48.192;16.278;2023-07-24T03:07:06;3.63;;;2.45;;
42132;SDS011;70517;48.192;16.278;2023-07-24T03:13:07;3.90;;;2.10;;
42132;SDS011;70517;48.192;16.278;2023-07-24T03:19:08;3.42;;;2.35;;
42132;SDS011;70517;48.192;16.278;2023-07-24T03:25:08;2.60;;;2.22;;
42132;SDS011;70517;48.192;16.278;2023-07-24T03:31:09;3.00;;;2.20;;
42132;SDS011;70517;48.192;16.278;2023-07-24T03:37:09;3.33;;;2.42;;
42132;SDS011;70517;48.192;16.278;2023-07-24T03:43:09;2.38;;;2.05;;
42132;SDS011;70517;48.192;16.278;2023-07-24T03:49:10;3.20;;;2.27;;
42132;SDS011;70517;48.192;16.278;2023-07-24T03:55:10;2.58;;;1.88;;
42132;SDS011;70517;48.192;16.278;2023-07-24T04:01:10;3.50;;;1.98;;
42132;SDS011;70517;48.192;16.278;2023-07-24T04:07:11;2.80;;;2.10;;
42132;SDS011;70517;48.192;16.278;2023-07-24T04:13:11;3.72;;;2.40;;
42132;SDS011;70517;48.192;16.278;2023-07-24T04:19:12;2.13;;;1.92;;
42132;SDS011;70517;48.192;16.278;2023-07-24T04:25:12;2.85;;;2.08;;
42132;SDS011;70517;48.192;16.278;2023-07-24T04:31:12;2.83;;;2.25;;
42132;SDS011;70517;48.192;16.278;2023-07-24T04:37:13;2.45;;;2.25;;
42132;SDS011;70517;48.192;16.278;2023-07-24T04:43:13;2.92;;;1.95;;
42132;SDS011;70517;48.192;16.278;2023-07-24T04:49:13;4.00;;;2.63;;
42132;SDS011;70517;48.192;16.278;2023-07-24T04:55:14;3.30;;;1.95;;
42132;SDS011;70517;48.192;16.278;2023-07-24T05:01:14;4.25;;;2.30;;
42132;SDS011;70517;48.192;16.278;2023-07-24T05:07:15;2.47;;;2.25;;
42132;SDS011;70517;48.192;16.278;2023-07-24T05:10:15;2.77;;;2.43;;
42132;SDS011;70517;48.192;16.278;2023-07-24T05:16:15;2.80;;;2.47;;
42132;SDS011;70517;48.192;16.278;2023-07-24T05:19:15;3.07;;;2.40;;
42132;SDS011;70517;48.192;16.278;2023-07-24T05:22:16;3.53;;;2.83;;
42132;SDS011;70517;48.192;16.278;2023-07-24T05:25:16;3.27;;;2.73;;
42132;SDS011;70517;48.192;16.278;2023-07-24T05:28:16;4.20;;;3.33;;
42132;SDS011;70517;48.192;16.278;2023-07-24T05:31:16;4.97;;;3.30;;
42132;SDS011;70517;48.192;16.278;2023-07-24T05:34:17;6.50;;;2.93;;
42132;SDS011;70517;48.192;16.278;2023-07-24T05:37:17;3.67;;;2.70;;
42132;SDS011;70517;48.192;16.278;2023-07-24T05:40:17;3.72;;;2.95;;
42132;SDS011;70517;48.192;16.278;2023-07-24T05:43:17;3.53;;;2.63;;
42132;SDS011;70517;48.192;16.278;2023-07-24T05:46:17;4.17;;;3.00;;
42132;SDS011;70517;48.192;16.278;2023-07-24T05:49:18;3.00;;;2.70;;
42132;SDS011;70517;48.192;16.278;2023-07-24T05:52:18;4.17;;;3.47;;
42132;SDS011;70517;48.192;16.278;2023-07-24T05:55:18;5.10;;;3.80;;
42132;SDS011;70517;48.192;16.278;2023-07-24T05:58:18;3.47;;;3.10;;
42132;SDS011;70517;48.192;16.278;2023-07-24T06:01:19;4.40;;;3.73;;
42132;SDS011;70517;48.192;16.278;2023-07-24T06:04:19;5.07;;;3.60;;
42132;SDS011;70517;48.192;16.278;2023-07-24T06:07:19;6.47;;;3.60;;
42132;SDS011;70517;48.192;16.278;2023-07-24T06:10:19;4.33;;;3.63;;
42132;SDS011;70517;48.192;16.278;2023-07-24T06:13:20;8.03;;;4.10;;
42132;SDS011;70517;48.192;16.278;2023-07-24T06:16:20;5.85;;;3.80;;
42132;SDS011;70517;48.192;16.278;2023-07-24T06:19:20;6.43;;;4.13;;
42132;SDS011;70517;48.192;16.278;2023-07-24T06:22:21;4.82;;;4.07;;
42132;SDS011;70517;48.192;16.278;2023-07-24T06:25:21;6.27;;;4.50;;
42132;SDS011;70517;48.192;16.278;2023-07-24T06:28:21;5.37;;;4.23;;
42132;SDS011;70517;48.192;16.278;2023-07-24T06:31:22;4.85;;;3.90;;
42132;SDS011;70517;48.192;16.278;2023-07-24T06:34:22;5.80;;;4.30;;
42132;SDS011;70517;48.192;16.278;2023-07-24T06:37:22;5.13;;;3.80;;
42132;SDS011;70517;48.192;16.278;2023-07-24T06:40:22;6.70;;;4.03;;
42132;SDS011;70517;48.192;16.278;2023-07-24T06:43:23;5.30;;;3.90;;
42132;SDS011;70517;48.192;16.278;2023-07-24T06:46:23;6.13;;;3.85;;
42132;SDS011;70517;48.192;16.278;2023-07-24T06:49:23;5.23;;;4.17;;
42132;SDS011;70517;48.192;16.278;2023-07-24T06:52:23;5.30;;;3.97;;
42132;SDS011;70517;48.192;16.278;2023-07-24T06:55:24;5.43;;;4.13;;
42132;SDS011;70517;48.192;16.278;2023-07-24T06:58:24;5.73;;;3.87;;
42132;SDS011;70517;48.192;16.278;2023-07-24T07:01:24;6.47;;;3.97;;
42132;SDS011;70517;48.192;16.278;2023-07-24T07:04:24;5.25;;;4.15;;
42132;SDS011;70517;48.192;16.278;2023-07-24T07:07:25;6.43;;;4.73;;
42132;SDS011;70517;48.192;16.278;2023-07-24T07:10:25;4.97;;;4.22;;
42132;SDS011;70517;48.192;16.278;2023-07-24T07:13:26;5.90;;;4.43;;
42132;SDS011;70517;48.192;16.278;2023-07-24T07:16:26;5.13;;;4.60;;
42132;SDS011;70517;48.192;16.278;2023-07-24T07:19:26;5.43;;;4.57;;
42132;SDS011;70517;48.192;16.278;2023-07-24T07:22:27;5.80;;;4.28;;
42132;SDS011;70517;48.192;16.278;2023-07-24T07:25:27;5.67;;;4.63;;
42132;SDS011;70517;48.192;16.278;2023-07-24T07:28:27;7.47;;;4.33;;
42132;SDS011;70517;48.192;16.278;2023-07-24T07:31:27;6.53;;;5.00;;
42132;SDS011;70517;48.192;16.278;2023-07-24T07:34:28;6.03;;;4.70;;
42132;SDS011;70517;48.192;16.278;2023-07-24T07:37:28;6.13;;;4.23;;
42132;SDS011;70517;48.192;16.278;2023-07-24T07:40:28;5.50;;;4.23;;
42132;SDS011;70517;48.192;16.278;2023-07-24T07:43:28;6.32;;;4.60;;
42132;SDS011;70517;48.192;16.278;2023-07-24T07:46:29;6.17;;;3.93;;
42132;SDS011;70517;48.192;16.278;2023-07-24T07:49:29;6.32;;;4.57;;
42132;SDS011;70517;48.192;16.278;2023-07-24T07:52:29;5.00;;;4.33;;
42132;SDS011;70517;48.192;16.278;2023-07-24T07:55:29;5.27;;;3.83;;
42132;SDS011;70517;48.192;16.278;2023-07-24T07:58:30;7.00;;;4.68;;
42132;SDS011;70517;48.192;16.278;2023-07-24T08:01:30;7.53;;;4.97;;
42132;SDS011;70517;48.192;16.278;2023-07-24T08:04:31;5.85;;;5.25;;
42132;SDS011;70517;48.192;16.278;2023-07-24T08:07:31;5.32;;;4.30;;
42132;SDS011;70517;48.192;16.278;2023-07-24T08:10:31;5.47;;;4.93;;
42132;SDS011;70517;48.192;16.278;2023-07-24T08:13:32;4.47;;;3.93;;
42132;SDS011;70517;48.192;16.278;2023-07-24T08:16:32;5.03;;;4.28;;
42132;SDS011;70517;48.192;16.278;2023-07-24T08:19:33;5.00;;;4.50;;
42132;SDS011;70517;48.192;16.278;2023-07-24T08:22:33;5.07;;;4.30;;
42132;SDS011;70517;48.192;16.278;2023-07-24T08:25:33;4.28;;;3.88;;
42132;SDS011;70517;48.192;16.278;2023-07-24T08:28:34;6.50;;;4.53;;
42132;SDS011;70517;48.192;16.278;2023-07-24T08:31:37;5.18;;;4.43;;
42132;SDS011;70517;48.192;16.278;2023-07-24T08:34:37;6.03;;;4.67;;
42132;SDS011;70517;48.192;16.278;2023-07-24T08:37:37;5.40;;;4.60;;
42132;SDS011;70517;48.192;16.278;2023-07-24T08:40:37;5.20;;;4.20;;
42132;SDS011;70517;48.192;16.278;2023-07-24T08:43:41;9.07;;;4.60;;
42132;SDS011;70517;48.192;16.278;2023-07-24T08:46:41;4.88;;;4.03;;
42132;SDS011;70517;48.192;16.278;2023-07-24T08:49:46;4.97;;;4.47;;
42132;SDS011;70517;48.192;16.278;2023-07-24T08:52:46;5.05;;;4.20;;
42132;SDS011;70517;48.192;16.278;2023-07-24T08:55:47;4.88;;;4.30;;
42132;SDS011;70517;48.192;16.278;2023-07-24T08:58:49;6.30;;;4.05;;
42132;SDS011;70517;48.192;16.278;2023-07-24T09:01:49;6.55;;;4.82;;
42132;SDS011;70517;48.192;16.278;2023-07-24T09:04:50;4.90;;;4.22;;
42132;SDS011;70517;48.192;16.278;2023-07-24T09:07:50;4.60;;;4.10;;
42132;SDS011;70517;48.192;16.278;2023-07-24T09:10:53;5.93;;;4.28;;
42132;SDS011;70517;48.192;16.278;2023-07-24T09:13:53;4.88;;;4.43;;
42132;SDS011;70517;48.192;16.278;2023-07-24T09:17:03;4.60;;;4.17;;
42132;SDS011;70517;48.192;16.278;2023-07-24T09:20:04;4.40;;;4.00;;
42132;SDS011;70517;48.192;16.278;2023-07-24T09:23:04;4.03;;;3.70;;
42132;SDS011;70517;48.192;16.278;2023-07-24T09:26:05;4.32;;;3.92;;
42132;SDS011;70517;48.192;16.278;2023-07-24T09:29:06;4.63;;;3.75;;
42132;SDS011;70517;48.192;16.278;2023-07-24T09:32:06;4.32;;;3.85;;
42132;SDS011;70517;48.192;16.278;2023-07-24T09:35:16;4.35;;;3.95;;
42132;SDS011;70517;48.192;16.278;2023-07-24T09:38:17;6.68;;;4.85;;
42132;SDS011;70517;48.192;16.278;2023-07-24T09:41:26;4.90;;;4.40;;
42132;SDS011;70517;48.192;16.278;2023-07-24T09:44:27;4.13;;;3.75;;
42132;SDS011;70517;48.192;16.278;2023-07-24T09:47:28;5.07;;;3.80;;
42132;SDS011;70517;48.192;16.278;2023-07-24T09:50:28;6.90;;;4.07;;
42132;SDS011;70517;48.192;16.278;2023-07-24T09:53:46;4.10;;;3.70;;
42132;SDS011;70517;48.192;16.278;2023-07-24T09:56:49;5.47;;;4.25;;
42132;SDS011;70517;48.192;16.278;2023-07-24T09:59:50;6.38;;;4.68;;
42132;SDS011;70517;48.192;16.278;2023-07-24T10:02:51;6.65;;;4.45;;
42132;SDS011;70517;48.192;16.278;2023-07-24T10:05:52;5.65;;;4.15;;
42132;SDS011;70517;48.192;16.278;2023-07-24T10:08:52;4.68;;;4.22;;
42132;SDS011;70517;48.192;16.278;2023-07-24T10:11:53;4.90;;;4.00;;
42132;SDS011;70517;48.192;16.278;2023-07-24T10:14:54;4.53;;;3.93;;
42132;SDS011;70517;48.192;16.278;2023-07-24T10:18:02;4.75;;;4.20;;
42132;SDS011;70517;48.192;16.278;2023-07-24T10:21:04;4.85;;;4.25;;
42132;SDS011;70517;48.192;16.278;2023-07-24T10:24:04;4.55;;;4.15;;
42132;SDS011;70517;48.192;16.278;2023-07-24T10:27:05;4.37;;;3.97;;
42132;SDS011;70517;48.192;16.278;2023-07-24T10:30:05;4.47;;;4.18;;
42132;SDS011;70517;48.192;16.278;2023-07-24T10:33:11;5.00;;;4.50;;
42132;SDS011;70517;48.192;16.278;2023-07-24T10:36:11;6.20;;;5.63;;
42132;SDS011;70517;48.192;16.278;2023-07-24T10:39:14;5.63;;;5.13;;
42132;SDS011;70517;48.192;16.278;2023-07-24T10:42:15;5.80;;;4.70;;
42132;SDS011;70517;48.192;16.278;2023-07-24T10:45:22;6.32;;;4.65;;
42132;SDS011;70517;48.192;16.278;2023-07-24T10:48:24;4.93;;;4.47;;
42132;SDS011;70517;48.192;16.278;2023-07-24T10:51:25;4.95;;;4.55;;
42132;SDS011;70517;48.192;16.278;2023-07-24T10:54:25;4.67;;;4.27;;
42132;SDS011;70517;48.192;16.278;2023-07-24T10:57:26;6.30;;;4.53;;
42132;SDS011;70517;48.192;16.278;2023-07-24T11:00:27;5.32;;;4.82;;
42132;SDS011;70517;48.192;16.278;2023-07-24T11:03:27;4.70;;;4.30;;
42132;SDS011;70517;48.192;16.278;2023-07-24T11:06:28;6.50;;;3.83;;
42132;SDS011;70517;48.192;16.278;2023-07-24T11:09:35;5.22;;;4.70;;
42132;SDS011;70517;48.192;16.278;2023-07-24T11:12:38;5.78;;;4.70;;
42132;SDS011;70517;48.192;16.278;2023-07-24T11:15:39;5.18;;;4.68;;
42132;SDS011;70517;48.192;16.278;2023-07-24T11:18:46;5.05;;;4.60;;
42132;SDS011;70517;48.192;16.278;2023-07-24T11:21:47;4.75;;;4.18;;
42132;SDS011;70517;48.192;16.278;2023-07-24T11:24:47;4.30;;;3.90;;
42132;SDS011;70517;48.192;16.278;2023-07-24T11:27:47;5.63;;;4.57;;
42132;SDS011;70517;48.192;16.278;2023-07-24T11:30:48;5.03;;;4.63;;
42132;SDS011;70517;48.192;16.278;2023-07-24T11:33:49;5.20;;;4.80;;
42132;SDS011;70517;48.192;16.278;2023-07-24T11:36:50;5.32;;;4.75;;
42132;SDS011;70517;48.192;16.278;2023-07-24T11:42:57;6.43;;;5.10;;
42132;SDS011;70517;48.192;16.278;2023-07-24T11:45:57;5.20;;;4.70;;
42132;SDS011;70517;48.192;16.278;2023-07-24T11:48:57;7.22;;;5.68;;
42132;SDS011;70517;48.192;16.278;2023-07-24T11:52:04;5.70;;;5.10;;
42132;SDS011;70517;48.192;16.278;2023-07-24T11:55:05;5.40;;;4.90;;
42132;SDS011;70517;48.192;16.278;2023-07-24T11:58:06;5.40;;;4.95;;
42132;SDS011;70517;48.192;16.278;2023-07-24T12:01:06;6.47;;;5.87;;
42132;SDS011;70517;48.192;16.278;2023-07-24T12:04:06;6.60;;;5.93;;
42132;SDS011;70517;48.192;16.278;2023-07-24T12:07:07;6.00;;;5.40;;
42132;SDS011;70517;48.192;16.278;2023-07-24T12:10:08;6.55;;;5.90;;
42132;SDS011;70517;48.192;16.278;2023-07-24T12:13:08;7.18;;;5.90;;
42132;SDS011;70517;48.192;16.278;2023-07-24T12:16:09;6.47;;;5.88;;
42132;SDS011;70517;48.192;16.278;2023-07-24T12:19:09;6.30;;;5.70;;
42132;SDS011;70517;48.192;16.278;2023-07-24T12:22:09;6.47;;;5.73;;
42132;SDS011;70517;48.192;16.278;2023-07-24T12:25:09;6.80;;;6.07;;
42132;SDS011;70517;48.192;16.278;2023-07-24T12:28:10;7.20;;;6.50;;
42132;SDS011;70517;48.192;16.278;2023-07-24T12:31:10;7.73;;;6.53;;
42132;SDS011;70517;48.192;16.278;2023-07-24T12:34:10;7.55;;;6.75;;
42132;SDS011;70517;48.192;16.278;2023-07-24T12:37:12;7.22;;;6.53;;
42132;SDS011;70517;48.192;16.278;2023-07-24T12:40:12;7.88;;;7.07;;
42132;SDS011;70517;48.192;16.278;2023-07-24T12:43:14;7.85;;;7.03;;
42132;SDS011;70517;48.192;16.278;2023-07-24T12:46:14;8.80;;;7.90;;
42132;SDS011;70517;48.192;16.278;2023-07-24T12:49:15;10.43;;;8.10;;
42132;SDS011;70517;48.192;16.278;2023-07-24T12:52:15;10.13;;;9.00;;
42132;SDS011;70517;48.192;16.278;2023-07-24T12:55:16;8.95;;;8.15;;
42132;SDS011;70517;48.192;16.278;2023-07-24T12:58:16;8.57;;;7.78;;
42132;SDS011;70517;48.192;16.278;2023-07-24T13:01:16;9.90;;;7.87;;
42132;SDS011;70517;48.192;16.278;2023-07-24T13:04:17;8.33;;;7.53;;
42132;SDS011;70517;48.192;16.278;2023-07-24T13:07:18;8.05;;;7.05;;
42132;SDS011;70517;48.192;16.278;2023-07-24T13:10:19;8.18;;;7.38;;
42132;SDS011;70517;48.192;16.278;2023-07-24T13:13:19;8.33;;;7.57;;
42132;SDS011;70517;48.192;16.278;2023-07-24T13:16:19;9.80;;;8.40;;
42132;SDS011;70517;48.192;16.278;2023-07-24T13:19:20;9.30;;;6.80;;
42132;SDS011;70517;48.192;16.278;2023-07-24T13:22:20;9.30;;;5.77;;
42132;SDS011;70517;48.192;16.278;2023-07-24T13:25:20;7.30;;;5.77;;
42132;SDS011;70517;48.192;16.278;2023-07-24T13:28:21;6.43;;;5.83;;
42132;SDS011;70517;48.192;16.278;2023-07-24T13:31:21;6.33;;;5.30;;
42132;SDS011;70517;48.192;16.278;2023-07-24T13:34:23;5.82;;;5.32;;
42132;SDS011;70517;48.192;16.278;2023-07-24T13:37:23;5.13;;;4.65;;
42132;SDS011;70517;48.192;16.278;2023-07-24T13:40:26;5.93;;;5.43;;
42132;SDS011;70517;48.192;16.278;2023-07-24T13:43:27;5.47;;;5.07;;
42132;SDS011;70517;48.192;16.278;2023-07-24T13:46:27;6.15;;;5.63;;
42132;SDS011;70517;48.192;16.278;2023-07-24T13:49:27;6.03;;;5.43;;
42132;SDS011;70517;48.192;16.278;2023-07-24T13:52:28;6.90;;;6.10;;
42132;SDS011;70517;48.192;16.278;2023-07-24T13:55:29;7.07;;;6.30;;
42132;SDS011;70517;48.192;16.278;2023-07-24T13:58:29;6.70;;;5.95;;
42132;SDS011;70517;48.192;16.278;2023-07-24T14:01:29;7.33;;;5.67;;
42132;SDS011;70517;48.192;16.278;2023-07-24T14:04:29;5.50;;;5.00;;
42132;SDS011;70517;48.192;16.278;2023-07-24T14:07:30;6.80;;;6.10;;
42132;SDS011;70517;48.192;16.278;2023-07-24T14:10:30;6.50;;;5.80;;
42132;SDS011;70517;48.192;16.278;2023-07-24T14:13:30;6.43;;;5.53;;
42132;SDS011;70517;48.192;16.278;2023-07-24T14:16:30;6.53;;;6.00;;
42132;SDS011;70517;48.192;16.278;2023-07-24T14:19:31;6.20;;;5.30;;
42132;SDS011;70517;48.192;16.278;2023-07-24T14:22:31;6.40;;;5.80;;
42132;SDS011;70517;48.192;16.278;2023-07-24T14:25:31;5.97;;;5.47;;
42132;SDS011;70517;48.192;16.278;2023-07-24T14:28:31;8.73;;;5.57;;
42132;SDS011;70517;48.192;16.278;2023-07-24T14:31:32;10.02;;;7.05;;
42132;SDS011;70517;48.192;16.278;2023-07-24T14:34:33;6.70;;;6.00;;
42132;SDS011;70517;48.192;16.278;2023-07-24T14:37:33;7.30;;;5.93;;
42132;SDS011;70517;48.192;16.278;2023-07-24T14:40:33;6.70;;;6.00;;
42132;SDS011;70517;48.192;16.278;2023-07-24T14:43:33;6.13;;;5.10;;
42132;SDS011;70517;48.192;16.278;2023-07-24T14:46:34;7.30;;;6.60;;
42132;SDS011;70517;48.192;16.278;2023-07-24T14:49:34;6.33;;;5.73;;
42132;SDS011;70517;48.192;16.278;2023-07-24T14:52:34;7.37;;;5.70;;
42132;SDS011;70517;48.192;16.278;2023-07-24T14:55:35;6.93;;;6.32;;
42132;SDS011;70517;48.192;16.278;2023-07-24T14:58:35;7.30;;;5.90;;
42132;SDS011;70517;48.192;16.278;2023-07-24T15:01:35;6.97;;;6.20;;
42132;SDS011;70517;48.192;16.278;2023-07-24T15:04:35;6.60;;;5.90;;
42132;SDS011;70517;48.192;16.278;2023-07-24T15:07:36;8.33;;;6.60;;
42132;SDS011;70517;48.192;16.278;2023-07-24T15:10:36;6.60;;;6.00;;
42132;SDS011;70517;48.192;16.278;2023-07-24T15:13:36;7.78;;;6.97;;
42132;SDS011;70517;48.192;16.278;2023-07-24T15:16:37;7.20;;;6.47;;
42132;SDS011;70517;48.192;16.278;2023-07-24T15:19:37;5.97;;;5.30;;
42132;SDS011;70517;48.192;16.278;2023-07-24T15:22:37;8.40;;;6.80;;
42132;SDS011;70517;48.192;16.278;2023-07-24T15:25:37;8.47;;;6.30;;
42132;SDS011;70517;48.192;16.278;2023-07-24T15:28:38;7.72;;;5.85;;
42132;SDS011;70517;48.192;16.278;2023-07-24T15:31:39;7.00;;;5.50;;
42132;SDS011;70517;48.192;16.278;2023-07-24T15:34:40;6.95;;;6.25;;
42132;SDS011;70517;48.192;16.278;2023-07-24T15:37:41;5.87;;;5.20;;
42132;SDS011;70517;48.192;16.278;2023-07-24T15:40:41;8.33;;;5.70;;
42132;SDS011;70517;48.192;16.278;2023-07-24T15:43:41;6.17;;;5.57;;
42132;SDS011;70517;48.192;16.278;2023-07-24T15:46:41;6.80;;;6.20;;
42132;SDS011;70517;48.192;16.278;2023-07-24T15:49:42;6.50;;;5.70;;
42132;SDS011;70517;48.192;16.278;2023-07-24T15:52:42;6.30;;;5.70;;
42132;SDS011;70517;48.192;16.278;2023-07-24T15:55:43;6.73;;;6.03;;
42132;SDS011;70517;48.192;16.278;2023-07-24T15:58:43;6.53;;;5.40;;
42132;SDS011;70517;48.192;16.278;2023-07-24T16:01:43;6.10;;;5.50;;
42132;SDS011;70517;48.192;16.278;2023-07-24T16:04:43;7.57;;;5.60;;
42132;SDS011;70517;48.192;16.278;2023-07-24T16:07:44;7.10;;;5.55;;
42132;SDS011;70517;48.192;16.278;2023-07-24T16:10:45;6.82;;;5.18;;
42132;SDS011;70517;48.192;16.278;2023-07-24T16:13:45;7.53;;;5.47;;
42132;SDS011;70517;48.192;16.278;2023-07-24T16:16:46;5.70;;;5.13;;
42132;SDS011;70517;48.192;16.278;2023-07-24T16:19:46;6.80;;;5.50;;
42132;SDS011;70517;48.192;16.278;2023-07-24T16:22:46;5.97;;;5.37;;
42132;SDS011;70517;48.192;16.278;2023-07-24T16:25:47;5.30;;;4.63;;
42132;SDS011;70517;48.192;16.278;2023-07-24T16:28:50;6.17;;;5.43;;
42132;SDS011;70517;48.192;16.278;2023-07-24T16:31:50;7.78;;;5.95;;
42132;SDS011;70517;48.192;16.278;2023-07-24T16:34:51;7.23;;;5.70;;
42132;SDS011;70517;48.192;16.278;2023-07-24T16:37:51;6.15;;;5.55;;
42132;SDS011;70517;48.192;16.278;2023-07-24T16:40:51;6.50;;;5.33;;
42132;SDS011;70517;48.192;16.278;2023-07-24T16:43:51;7.13;;;5.85;;
42132;SDS011;70517;48.192;16.278;2023-07-24T16:46:52;6.53;;;5.30;;
42132;SDS011;70517;48.192;16.278;2023-07-24T16:49:52;6.27;;;5.23;;
42132;SDS011;70517;48.192;16.278;2023-07-24T16:52:52;5.70;;;5.17;;
42132;SDS011;70517;48.192;16.278;2023-07-24T16:55:52;7.30;;;5.33;;
42132;SDS011;70517;48.192;16.278;2023-07-24T16:58:53;6.50;;;4.87;;
42132;SDS011;70517;48.192;16.278;2023-07-24T17:01:54;7.10;;;5.35;;
42132;SDS011;70517;48.192;16.278;2023-07-24T17:04:54;6.55;;;5.32;;
42132;SDS011;70517;48.192;16.278;2023-07-24T17:07:54;7.03;;;5.20;;
42132;SDS011;70517;48.192;16.278;2023-07-24T17:10:54;5.40;;;4.90;;
42132;SDS011;70517;48.192;16.278;2023-07-24T17:13:55;5.93;;;5.33;;
42132;SDS011;70517;48.192;16.278;2023-07-24T17:16:56;6.38;;;5.47;;
42132;SDS011;70517;48.192;16.278;2023-07-24T17:19:56;6.47;;;5.65;;
42132;SDS011;70517;48.192;16.278;2023-07-24T17:22:57;7.78;;;5.30;;
42132;SDS011;70517;48.192;16.278;2023-07-24T17:25:57;6.13;;;5.13;;
42132;SDS011;70517;48.192;16.278;2023-07-24T17:28:57;7.80;;;6.90;;
42132;SDS011;70517;48.192;16.278;2023-07-24T17:32:01;7.43;;;6.63;;
42132;SDS011;70517;48.192;16.278;2023-07-24T17:35:01;7.43;;;5.57;;
42132;SDS011;70517;48.192;16.278;2023-07-24T17:38:02;6.23;;;5.63;;
42132;SDS011;70517;48.192;16.278;2023-07-24T17:41:02;7.07;;;6.05;;
42132;SDS011;70517;48.192;16.278;2023-07-24T17:44:04;9.25;;;5.50;;
42132;SDS011;70517;48.192;16.278;2023-07-24T17:47:04;10.53;;;3.10;;
42132;SDS011;70517;48.192;16.278;2023-07-24T17:50:04;2.80;;;2.30;;
42132;SDS011;70517;48.192;16.278;2023-07-24T17:53:05;3.83;;;2.28;;
42132;SDS011;70517;48.192;16.278;2023-07-24T17:56:05;4.00;;;1.97;;
42132;SDS011;70517;48.192;16.278;2023-07-24T17:59:05;2.93;;;1.90;;
42132;SDS011;70517;48.192;16.278;2023-07-24T18:02:06;4.80;;;2.25;;
42132;SDS011;70517;48.192;16.278;2023-07-24T18:05:06;3.22;;;1.90;;
42132;SDS011;70517;48.192;16.278;2023-07-24T18:08:07;5.03;;;2.03;;
42132;SDS011;70517;48.192;16.278;2023-07-24T18:11:07;3.13;;;1.83;;
42132;SDS011;70517;48.192;16.278;2023-07-24T18:14:07;3.57;;;1.60;;
42132;SDS011;70517;48.192;16.278;2023-07-24T18:17:07;2.60;;;1.73;;
42132;SDS011;70517;48.192;16.278;2023-07-24T18:20:07;1.90;;;1.50;;
42132;SDS011;70517;48.192;16.278;2023-07-24T18:23:08;3.22;;;1.75;;
42132;SDS011;70517;48.192;16.278;2023-07-24T18:26:08;2.42;;;1.85;;
42132;SDS011;70517;48.192;16.278;2023-07-24T18:29:09;4.78;;;2.20;;
42132;SDS011;70517;48.192;16.278;2023-07-24T18:32:09;4.78;;;3.05;;
42132;SDS011;70517;48.192;16.278;2023-07-24T18:35:10;3.97;;;2.57;;
42132;SDS011;70517;48.192;16.278;2023-07-24T18:38:11;3.17;;;2.40;;
42132;SDS011;70517;48.192;16.278;2023-07-24T18:41:12;3.65;;;1.83;;
42132;SDS011;70517;48.192;16.278;2023-07-24T18:44:12;3.93;;;1.93;;
42132;SDS011;70517;48.192;16.278;2023-07-24T18:47:12;3.17;;;2.07;;
42132;SDS011;70517;48.192;16.278;2023-07-24T18:53:12;2.85;;;1.83;;
42132;SDS011;70517;48.192;16.278;2023-07-24T18:56:13;2.50;;;1.90;;
42132;SDS011;70517;48.192;16.278;2023-07-24T18:59:13;3.10;;;2.00;;
42132;SDS011;70517;48.192;16.278;2023-07-24T19:02:14;2.55;;;1.90;;
42132;SDS011;70517;48.192;16.278;2023-07-24T19:05:14;3.85;;;2.03;;
42132;SDS011;70517;48.192;16.278;2023-07-24T19:08:14;2.42;;;2.10;;
42132;SDS011;70517;48.192;16.278;2023-07-24T19:11:17;2.85;;;2.00;;
42132;SDS011;70517;48.192;16.278;2023-07-24T19:14:17;2.97;;;1.90;;
42132;SDS011;70517;48.192;16.278;2023-07-24T19:17:18;3.60;;;2.27;;
42132;SDS011;70517;48.192;16.278;2023-07-24T19:23:18;3.55;;;2.65;;
42132;SDS011;70517;48.192;16.278;2023-07-24T19:26:18;4.77;;;3.17;;
42132;SDS011;70517;48.192;16.278;2023-07-24T19:32:19;4.75;;;2.80;;
42132;SDS011;70517;48.192;16.278;2023-07-24T19:35:20;4.13;;;3.35;;
42132;SDS011;70517;48.192;16.278;2023-07-24T19:38:20;4.57;;;3.43;;
42132;SDS011;70517;48.192;16.278;2023-07-24T19:41:20;5.30;;;3.70;;
42132;SDS011;70517;48.192;16.278;2023-07-24T19:44:21;5.38;;;4.28;;
42132;SDS011;70517;48.192;16.278;2023-07-24T19:47:21;6.57;;;4.10;;